Time;durP1;ratioP1;P1;durP2;ratioP2;P2;SDS_P1;SDS_P2;PMS_P1;PMS_P2;Temp;Humidity;BMP_temperature;BMP_pressure;BME280_temperature;BME280_humidity;BME280_pressure;Samples;Min_cycle;Max_cycle;Signal;HPM_P1;HPM_P2
2024/04/11 00:00:55;;;;;;;8.23;4.25;;;;;;;;;;5530057;26;20405;-71
2024/04/11 00:03:21;;;;;;;8.57;4.35;;;;;;;;;;5528093;26;19998;-72
2024/04/11 00:05:47;;;;;;;8.55;4.72;;;;;;;;;;5529377;26;20428;-71
2024/04/11 00:08:13;;;;;;;9.85;4.35;;;;;;;;;;5525498;26;20005;-71
2024/04/11 00:10:39;;;;;;;8.05;4.03;;;;;;;;;;5528089;26;20026;-71
2024/04/11 00:13:05;;;;;;;12.23;4.57;;;;;;;;;;5527966;26;20005;-71
2024/04/11 00:15:31;;;;;;;10.02;4.38;;;;;;;;;;5528176;26;20068;-71
2024/04/11 00:17:57;;;;;;;9.40;4.32;;;;;;;;;;5528786;26;20005;-72
2024/04/11 00:20:23;;;;;;;12.63;4.38;;;;;;;;;;5528675;26;20448;-71
2024/04/11 00:22:50;;;;;;;8.00;4.50;;;;;;;;;;5528529;26;19997;-72
2024/04/11 00:25:17;;;;;;;7.80;4.07;;;;;;;;;;5526599;26;19997;-72
2024/04/11 00:27:45;;;;;;;8.40;3.63;;;;;;;;;;5528268;26;20393;-72
2024/04/11 00:30:17;;;;;;;7.90;3.92;;;;;;;;;;5527923;26;20008;-73
2024/04/11 00:32:48;;;;;;;9.18;4.50;;;;;;;;;;5534032;26;19998;-72
2024/04/11 00:35:17;;;;;;;8.32;4.18;;;;;;;;;;5534280;26;20129;-71
2024/04/11 00:37:43;;;;;;;9.20;4.28;;;;;;;;;;5533999;26;20000;-72
2024/04/11 00:40:20;;;;;;;8.13;3.97;;;;;;;;;;5530601;26;20072;-71
2024/04/11 00:42:48;;;;;;;9.63;3.95;;;;;;;;;;5533692;26;19998;-71
2024/04/11 00:45:15;;;;;;;6.13;3.60;;;;;;;;;;5533631;26;20012;-71
2024/04/11 00:47:44;;;;;;;7.78;3.63;;;;;;;;;;5530375;26;19997;-72
2024/04/11 00:50:10;;;;;;;8.25;3.78;;;;;;;;;;5531709;26;20356;-71
2024/04/11 00:52:38;;;;;;;7.13;4.18;;;;;;;;;;5529227;26;19993;-72
2024/04/11 00:55:05;;;;;;;7.95;3.75;;;;;;;;;;5528044;26;19993;-72
2024/04/11 00:57:31;;;;;;;7.45;4.90;;;;;;;;;;5532168;26;20005;-71
2024/04/11 00:59:57;;;;;;;9.80;4.53;;;;;;;;;;5536634;26;20380;-72
2024/04/11 01:02:23;;;;;;;7.45;3.50;;;;;;;;;;5534146;26;19993;-70
2024/04/11 01:04:50;;;;;;;6.10;3.30;;;;;;;;;;5532368;26;19994;-70
2024/04/11 01:07:16;;;;;;;6.00;3.45;;;;;;;;;;5535059;26;20039;-71
2024/04/11 01:09:46;;;;;;;10.82;3.33;;;;;;;;;;5535517;26;20237;-71
2024/04/11 01:12:12;;;;;;;9.10;4.50;;;;;;;;;;5536473;26;19994;-71
2024/04/11 01:14:39;;;;;;;6.63;3.65;;;;;;;;;;5538104;26;20408;-71
2024/04/11 01:17:05;;;;;;;8.68;3.75;;;;;;;;;;5540340;26;19994;-72
2024/04/11 01:19:32;;;;;;;12.35;4.03;;;;;;;;;;5541667;26;19993;-70
2024/04/11 01:22:01;;;;;;;8.82;4.05;;;;;;;;;;5534235;26;20008;-72
2024/04/11 01:24:30;;;;;;;9.95;4.03;;;;;;;;;;5528561;26;20062;-71
2024/04/11 01:26:56;;;;;;;9.20;4.97;;;;;;;;;;5529320;26;20436;-72
2024/04/11 01:29:25;;;;;;;8.27;4.07;;;;;;;;;;5530408;26;20033;-71
2024/04/11 01:31:53;;;;;;;9.13;3.88;;;;;;;;;;5529749;26;20025;-71
2024/04/11 01:34:19;;;;;;;8.75;4.07;;;;;;;;;;5531882;26;19994;-71
2024/04/11 01:36:45;;;;;;;9.15;4.22;;;;;;;;;;5529242;26;20069;-72
2024/04/11 01:39:11;;;;;;;8.60;3.97;;;;;;;;;;5530568;26;20436;-71
2024/04/11 01:41:41;;;;;;;9.23;3.88;;;;;;;;;;5532739;26;20001;-70
2024/04/11 01:44:07;;;;;;;7.10;4.60;;;;;;;;;;5534888;26;19997;-72
2024/04/11 01:46:33;;;;;;;7.00;3.85;;;;;;;;;;5533761;26;20008;-71
2024/04/11 01:49:08;;;;;;;6.80;3.42;;;;;;;;;;5535459;26;20069;-72
2024/04/11 01:51:34;;;;;;;10.40;4.35;;;;;;;;;;5534299;26;19993;-71
2024/04/11 01:54:00;;;;;;;7.22;3.83;;;;;;;;;;5534569;26;19995;-71
2024/04/11 01:56:27;;;;;;;8.25;4.30;;;;;;;;;;5535625;26;19989;-72
2024/04/11 01:58:59;;;;;;;9.13;4.60;;;;;;;;;;5531516;26;19994;-71
2024/04/11 02:01:25;;;;;;;;;;;;;;;;;;5528859;26;20065;-71
2024/04/11 02:03:53;;;;;;;8.20;3.70;;;;;;;;;;5529367;26;19927;-71
2024/04/11 02:06:19;;;;;;;7.07;3.70;;;;;;;;;;5527949;26;19993;-71
2024/04/11 02:08:59;;;;;;;;;;;;;;;;;;;;;
2024/04/11 02:11:25;;;;;;;8.85;4.25;;;;;;;;;;5529081;26;20008;-71
2024/04/11 02:13:51;;;;;;;7.38;3.90;;;;;;;;;;5527284;26;20001;-71
2024/04/11 02:16:19;;;;;;;8.10;4.80;;;;;;;;;;5534539;26;20043;-71
2024/04/11 02:18:45;;;;;;;7.88;4.03;;;;;;;;;;5529698;26;20009;-71
2024/04/11 02:21:14;;;;;;;9.02;4.68;;;;;;;;;;5531380;26;19990;-72
2024/04/11 02:23:40;;;;;;;9.07;3.65;;;;;;;;;;5531318;26;20004;-70
2024/04/11 02:26:07;;;;;;;6.88;3.97;;;;;;;;;;5530715;26;19993;-71
2024/04/11 02:28:33;;;;;;;8.23;4.13;;;;;;;;;;5532511;26;19990;-70
2024/04/11 02:31:02;;;;;;;10.88;3.58;;;;;;;;;;5534219;26;20289;-71
2024/04/11 02:33:31;;;;;;;9.38;3.78;;;;;;;;;;5530691;26;20016;-71
2024/04/11 02:36:08;;;;;;;9.82;4.15;;;;;;;;;;5533428;26;19997;-72
2024/04/11 02:38:37;;;;;;;6.32;3.40;;;;;;;;;;5531210;26;19993;-72
2024/04/11 02:41:06;;;;;;;6.60;3.85;;;;;;;;;;5529848;26;20021;-72
2024/04/11 02:43:34;;;;;;;7.60;3.40;;;;;;;;;;5528872;26;20061;-70
2024/04/11 02:46:03;;;;;;;9.82;4.65;;;;;;;;;;5528518;26;20005;-71
2024/04/11 02:48:29;;;;;;;5.43;3.80;;;;;;;;;;5527243;26;19993;-73
2024/04/11 02:50:55;;;;;;;6.43;3.33;;;;;;;;;;5525073;26;19998;-71
2024/04/11 02:53:22;;;;;;;5.28;3.78;;;;;;;;;;5526158;26;19993;-70
2024/04/11 02:55:51;;;;;;;6.63;3.25;;;;;;;;;;5527315;26;20007;-71
2024/04/11 02:58:22;;;;;;;7.95;4.43;;;;;;;;;;5527092;26;20339;-71
2024/04/11 03:00:58;;;;;;;5.03;3.33;;;;;;;;;;5527065;26;20006;-72
2024/04/11 03:03:24;;;;;;;13.18;3.40;;;;;;;;;;5526814;26;20005;-71
2024/04/11 03:05:50;;;;;;;7.40;3.60;;;;;;;;;;5528084;26;20012;-71
2024/04/11 03:08:16;;;;;;;5.03;3.38;;;;;;;;;;5527585;26;20008;-71
2024/04/11 03:10:43;;;;;;;7.00;3.28;;;;;;;;;;5526739;26;20335;-72
2024/04/11 03:13:09;;;;;;;5.10;3.10;;;;;;;;;;5526547;26;20458;-71
2024/04/11 03:15:40;;;;;;;6.13;3.60;;;;;;;;;;5527623;26;19997;-74
2024/04/11 03:18:09;;;;;;;7.80;3.70;;;;;;;;;;5533404;26;19997;-72
2024/04/11 03:20:35;;;;;;;7.00;3.50;;;;;;;;;;5536485;26;20050;-72
2024/04/11 03:23:01;;;;;;;6.68;3.42;;;;;;;;;;5534466;26;19993;-73
2024/04/11 03:25:33;;;;;;;6.60;3.72;;;;;;;;;;5535477;26;19989;-71
2024/04/11 03:28:01;;;;;;;;;;;;;;;;;;5536857;26;20008;-71
2024/04/11 03:30:33;;;;;;;10.30;3.67;;;;;;;;;;5535451;26;19964;-70
2024/04/11 03:33:00;;;;;;;9.65;4.68;;;;;;;;;;5531808;26;20021;-72
2024/04/11 03:35:26;;;;;;;13.77;4.10;;;;;;;;;;5530070;26;20069;-72
2024/04/11 03:37:53;;;;;;;10.05;3.65;;;;;;;;;;5529370;26;20009;-72
2024/04/11 03:40:19;;;;;;;5.65;3.40;;;;;;;;;;5529718;26;20003;-73
2024/04/11 03:42:46;;;;;;;9.02;3.92;;;;;;;;;;5528693;26;20069;-72
2024/04/11 03:45:15;;;;;;;8.75;3.92;;;;;;;;;;5529088;26;19994;-72
2024/04/11 03:47:47;;;;;;;5.90;4.03;;;;;;;;;;5529211;26;20009;-71
2024/04/11 03:50:14;;;;;;;5.95;3.72;;;;;;;;;;5529180;26;20080;-71
2024/04/11 03:52:40;;;;;;;8.25;4.25;;;;;;;;;;5527053;26;20002;-72
2024/04/11 03:55:08;;;;;;;7.32;3.30;;;;;;;;;;5529148;26;20397;-72
2024/04/11 03:57:35;;;;;;;12.35;5.45;;;;;;;;;;5529724;26;20021;-72
2024/04/11 04:00:07;;;;;;;6.93;3.60;;;;;;;;;;5529694;26;19997;-71
2024/04/11 04:02:33;;;;;;;;;;;;;;;;;;5531963;26;19993;-72
2024/04/11 04:04:59;;;;;;;6.50;3.50;;;;;;;;;;5530324;26;20274;-72
2024/04/11 04:07:28;;;;;;;9.40;3.80;;;;;;;;;;5530279;26;20471;-72
2024/04/11 04:09:56;;;;;;;9.88;4.05;;;;;;;;;;5529106;26;19997;-73
2024/04/11 04:12:22;;;;;;;6.60;4.00;;;;;;;;;;5528827;26;20013;-73
2024/04/11 04:14:49;;;;;;;9.43;3.20;;;;;;;;;;5526761;26;20023;-72
2024/04/11 04:17:16;;;;;;;11.40;5.18;;;;;;;;;;5528530;26;20462;-72
2024/04/11 04:19:42;;;;;;;9.85;3.85;;;;;;;;;;5528291;26;20025;-71
2024/04/11 04:22:13;;;;;;;14.20;4.28;;;;;;;;;;5527843;26;19997;-72
2024/04/11 04:24:39;;;;;;;6.63;3.45;;;;;;;;;;5528201;26;20013;-72
2024/04/11 04:27:06;;;;;;;7.47;4.07;;;;;;;;;;5528187;26;19993;-70
2024/04/11 04:29:33;;;;;;;13.07;5.57;;;;;;;;;;5527125;26;19997;-72
2024/04/11 04:31:59;;;;;;;10.27;5.18;;;;;;;;;;5527733;26;20483;-71
2024/04/11 04:34:25;;;;;;;8.82;5.95;;;;;;;;;;5528791;26;19994;-72
2024/04/11 04:36:51;;;;;;;7.47;4.18;;;;;;;;;;5528535;26;20477;-71
2024/04/11 04:39:30;;;;;;;10.73;4.05;;;;;;;;;;5528928;26;20444;-72
2024/04/11 04:41:56;;;;;;;8.60;4.38;;;;;;;;;;5528255;26;20025;-72
2024/04/11 04:44:23;;;;;;;5.60;3.60;;;;;;;;;;5528000;26;20003;-73
2024/04/11 04:46:49;;;;;;;9.98;5.30;;;;;;;;;;5526650;26;20402;-72
2024/04/11 04:49:16;;;;;;;9.65;4.47;;;;;;;;;;5526191;26;19993;-73
2024/04/11 04:51:44;;;;;;;9.82;4.75;;;;;;;;;;5528058;26;20008;-72
2024/04/11 04:54:11;;;;;;;11.77;3.92;;;;;;;;;;5529783;26;20004;-72
2024/04/11 04:56:39;;;;;;;13.98;3.90;;;;;;;;;;5533547;26;20042;-73
2024/04/11 04:59:06;;;;;;;7.50;4.03;;;;;;;;;;5529175;26;20442;-74
2024/04/11 05:01:33;;;;;;;9.18;4.78;;;;;;;;;;5530005;26;20008;-71
2024/04/11 05:03:59;;;;;;;12.20;4.63;;;;;;;;;;5532284;25;19994;-71
2024/04/11 05:06:26;;;;;;;14.65;4.72;;;;;;;;;;5530679;26;20061;-72
2024/04/11 05:08:54;;;;;;;16.80;4.53;;;;;;;;;;5531201;25;20004;-72
2024/04/11 05:11:21;;;;;;;5.85;4.03;;;;;;;;;;5528582;25;20455;-73
2024/04/11 05:13:49;;;;;;;9.55;4.47;;;;;;;;;;5525911;25;20025;-73
2024/04/11 05:16:21;;;;;;;8.55;3.80;;;;;;;;;;5529020;25;19997;-73
2024/04/11 05:18:49;;;;;;;6.35;3.95;;;;;;;;;;5527440;25;20011;-73
2024/04/11 05:21:23;;;;;;;10.95;4.13;;;;;;;;;;5526714;26;20313;-70
2024/04/11 05:23:49;;;;;;;15.25;5.35;;;;;;;;;;5528460;25;20012;-72
2024/04/11 05:26:15;;;;;;;12.32;5.15;;;;;;;;;;5527209;26;20020;-73
2024/04/11 05:28:45;;;;;;;8.32;4.47;;;;;;;;;;5528416;25;20332;-72
2024/04/11 05:31:16;;;;;;;10.20;4.85;;;;;;;;;;5526161;26;20329;-72
2024/04/11 05:33:43;;;;;;;13.90;5.68;;;;;;;;;;5528113;25;20066;-72
2024/04/11 05:36:12;;;;;;;9.95;5.60;;;;;;;;;;5522261;26;19997;-72
2024/04/11 05:38:41;;;;;;;21.10;5.70;;;;;;;;;;5526487;25;20009;-72
2024/04/11 05:41:14;;;;;;;16.80;5.50;;;;;;;;;;5528769;26;20005;-73
2024/04/11 05:43:43;;;;;;;12.98;4.70;;;;;;;;;;5526170;26;20013;-72
2024/04/11 05:46:19;;;;;;;14.95;5.32;;;;;;;;;;5525584;26;20001;-72
2024/04/11 05:48:45;;;;;;;13.88;5.07;;;;;;;;;;5528889;26;20426;-72
2024/04/11 05:51:11;;;;;;;16.42;5.28;;;;;;;;;;5528369;25;20006;-71
2024/04/11 05:53:38;;;;;;;12.52;4.82;;;;;;;;;;5527315;26;20128;-72
2024/04/11 05:56:05;;;;;;;15.77;4.80;;;;;;;;;;5527636;26;20005;-71
2024/04/11 05:58:31;;;;;;;10.93;4.63;;;;;;;;;;5528649;26;20050;-72
2024/04/11 06:01:01;;;;;;;19.42;4.85;;;;;;;;;;5525763;25;20016;-72
2024/04/11 06:03:30;;;;;;;14.02;5.57;;;;;;;;;;5527162;26;20015;-73
2024/04/11 06:05:57;;;;;;;16.05;5.10;;;;;;;;;;5527832;25;20073;-73
2024/04/11 06:08:23;;;;;;;17.80;5.25;;;;;;;;;;5526453;25;20016;-72
2024/04/11 06:10:49;;;;;;;12.32;4.85;;;;;;;;;;5525959;26;20008;-73
2024/04/11 06:13:17;;;;;;;17.38;5.10;;;;;;;;;;5528251;25;20012;-73
2024/04/11 06:15:43;;;;;;;17.75;5.72;;;;;;;;;;5498260;26;20282;-71
2024/04/11 06:18:10;;;;;;;24.95;5.28;;;;;;;;;;5527596;26;20077;-71
2024/04/11 06:20:38;;;;;;;18.35;6.15;;;;;;;;;;5525555;26;20009;-72
2024/04/11 06:23:08;;;;;;;18.38;5.75;;;;;;;;;;5524537;25;20448;-72
2024/04/11 06:25:35;;;;;;;14.57;5.07;;;;;;;;;;5525514;26;19997;-73
2024/04/11 06:28:01;;;;;;;16.85;4.93;;;;;;;;;;5527612;26;20483;-73
2024/04/11 06:30:27;;;;;;;17.50;4.32;;;;;;;;;;5525607;26;20017;-72
2024/04/11 06:32:57;;;;;;;9.07;4.80;;;;;;;;;;5525359;26;19998;-72
2024/04/11 06:35:24;;;;;;;15.45;5.03;;;;;;;;;;5528014;26;20034;-73
2024/04/11 06:37:51;;;;;;;14.80;4.15;;;;;;;;;;5529152;26;19997;-74
2024/04/11 06:40:17;;;;;;;11.27;5.18;;;;;;;;;;5529544;26;20001;-73
2024/04/11 06:42:46;;;;;;;12.93;4.25;;;;;;;;;;5533445;26;19998;-73
2024/04/11 06:45:16;;;;;;;13.45;5.53;;;;;;;;;;5535912;26;20065;-72
2024/04/11 06:47:42;;;;;;;20.42;5.28;;;;;;;;;;5536456;26;20089;-73
2024/04/11 06:50:09;;;;;;;11.70;4.55;;;;;;;;;;5534963;26;20053;-73
2024/04/11 06:52:36;;;;;;;19.20;5.18;;;;;;;;;;5535181;25;20012;-73
2024/04/11 06:55:02;;;;;;;17.58;4.93;;;;;;;;;;5530333;26;20046;-71
2024/04/11 06:57:36;;;;;;;15.63;4.43;;;;;;;;;;5529806;26;20009;-74
2024/04/11 07:00:03;;;;;;;22.05;6.40;;;;;;;;;;5527679;26;20011;-72
2024/04/11 07:02:30;;;;;;;22.95;5.72;;;;;;;;;;5527567;26;20001;-73
2024/04/11 07:05:02;;;;;;;8.95;5.38;;;;;;;;;;5529624;25;20001;-72
2024/04/11 07:07:28;;;;;;;15.02;5.90;;;;;;;;;;5528839;26;19997;-73
2024/04/11 07:09:55;;;;;;;11.02;5.95;;;;;;;;;;5526281;26;20016;-73
2024/04/11 07:12:28;;;;;;;13.63;5.38;;;;;;;;;;5527431;26;19998;-72
2024/04/11 07:14:58;;;;;;;8.10;4.25;;;;;;;;;;5525131;26;20514;-73
2024/04/11 07:17:27;;;;;;;12.25;5.40;;;;;;;;;;5527269;25;20004;-73
2024/04/11 07:19:54;;;;;;;14.95;5.60;;;;;;;;;;5527757;26;20006;-73
2024/04/11 07:22:24;;;;;;;13.40;6.53;;;;;;;;;;5522513;26;20443;-72
2024/04/11 07:24:50;;;;;;;12.52;5.38;;;;;;;;;;5523675;25;20012;-73
2024/04/11 07:27:17;;;;;;;15.48;6.10;;;;;;;;;;5527343;26;20434;-72
2024/04/11 07:29:45;;;;;;;9.90;4.95;;;;;;;;;;5526757;26;20004;-73
2024/04/11 07:32:11;;;;;;;12.68;5.45;;;;;;;;;;5527216;26;20025;-72
2024/04/11 07:34:38;;;;;;;9.38;5.07;;;;;;;;;;5527583;26;20376;-74
2024/04/11 07:37:06;;;;;;;10.75;4.22;;;;;;;;;;5535125;26;20005;-75
2024/04/11 07:39:32;;;;;;;17.38;5.45;;;;;;;;;;5535916;26;20005;-73
2024/04/11 07:42:18;;;;;;;12.52;4.50;;;;;;;;;;5535631;26;20001;-73
2024/04/11 07:44:44;;;;;;;13.52;5.35;;;;;;;;;;5533681;26;19997;-73
2024/04/11 07:47:13;;;;;;;13.13;4.03;;;;;;;;;;5535576;26;20003;-72
2024/04/11 07:49:40;;;;;;;8.93;4.32;;;;;;;;;;5531038;26;19993;-74
2024/04/11 07:52:10;;;;;;;10.95;4.32;;;;;;;;;;5527565;26;20362;-72
2024/04/11 07:54:36;;;;;;;10.70;4.75;;;;;;;;;;5524115;26;19994;-72
2024/04/11 07:57:02;;;;;;;11.93;5.13;;;;;;;;;;5526842;26;19998;-74
2024/04/11 07:59:28;;;;;;;8.65;3.88;;;;;;;;;;5524691;26;20009;-73
2024/04/11 08:01:54;;;;;;;10.27;4.20;;;;;;;;;;5524454;26;19997;-73
2024/04/11 08:04:20;;;;;;;10.68;4.50;;;;;;;;;;5523927;26;20300;-73
2024/04/11 08:06:46;;;;;;;9.48;3.97;;;;;;;;;;5527025;26;19997;-72
2024/04/11 08:09:12;;;;;;;14.40;4.70;;;;;;;;;;5526767;26;19994;-74
2024/04/11 08:11:38;;;;;;;9.63;3.65;;;;;;;;;;5526685;26;20005;-74
2024/04/11 08:14:05;;;;;;;11.70;4.65;;;;;;;;;;5524767;26;20073;-73
2024/04/11 08:16:36;;;;;;;15.23;4.10;;;;;;;;;;5524972;26;20028;-73
2024/04/11 08:19:04;;;;;;;6.82;3.85;;;;;;;;;;5527592;26;20359;-72
2024/04/11 08:21:30;;;;;;;12.43;4.18;;;;;;;;;;5524168;26;20009;-73
2024/04/11 08:24:00;;;;;;;16.27;4.20;;;;;;;;;;5526703;26;19997;-73
2024/04/11 08:26:26;;;;;;;6.45;3.22;;;;;;;;;;5527031;26;19994;-74
2024/04/11 08:28:55;;;;;;;12.15;3.67;;;;;;;;;;5527563;26;20068;-74
2024/04/11 08:31:21;;;;;;;9.18;3.60;;;;;;;;;;5527259;26;20029;-73
2024/04/11 08:33:47;;;;;;;7.45;3.28;;;;;;;;;;5527698;26;20001;-75
2024/04/11 08:36:14;;;;;;;12.40;3.00;;;;;;;;;;5527484;26;20008;-73
2024/04/11 08:38:43;;;;;;;12.90;4.55;;;;;;;;;;5528575;26;20008;-74
2024/04/11 08:41:10;;;;;;;5.97;3.47;;;;;;;;;;5527004;26;19993;-73
2024/04/11 08:43:36;;;;;;;13.55;4.00;;;;;;;;;;5525437;26;19993;-74
2024/04/11 08:46:09;;;;;;;10.00;3.78;;;;;;;;;;5525969;26;20005;-72
2024/04/11 08:48:37;;;;;;;9.07;4.05;;;;;;;;;;5526617;26;20005;-72
2024/04/11 08:51:13;;;;;;;7.28;3.53;;;;;;;;;;5525741;26;19997;-73
2024/04/11 08:53:40;;;;;;;10.10;3.65;;;;;;;;;;5525513;26;20025;-72
2024/04/11 08:56:07;;;;;;;6.20;3.38;;;;;;;;;;5526124;26;20325;-73
2024/04/11 08:58:33;;;;;;;11.80;3.47;;;;;;;;;;5524270;26;19994;-73
2024/04/11 09:01:04;;;;;;;7.88;3.00;;;;;;;;;;5523846;26;20061;-72
2024/04/11 09:03:31;;;;;;;7.20;3.20;;;;;;;;;;5525885;26;20022;-72
2024/04/11 09:05:58;;;;;;;8.35;3.33;;;;;;;;;;5524267;26;19993;-73
2024/04/11 09:08:25;;;;;;;11.25;2.90;;;;;;;;;;5524585;26;20463;-73
2024/04/11 09:10:54;;;;;;;8.75;3.70;;;;;;;;;;5524428;26;19994;-73
2024/04/11 09:13:23;;;;;;;5.47;2.67;;;;;;;;;;5525029;26;20008;-75
2024/04/11 09:16:04;;;;;;;7.13;2.90;;;;;;;;;;5524923;26;20450;-72
2024/04/11 09:18:30;;;;;;;6.60;2.57;;;;;;;;;;5524359;26;20304;-72
2024/04/11 09:21:00;;;;;;;9.73;2.65;;;;;;;;;;5524098;26;20350;-73
2024/04/11 09:23:27;;;;;;;4.20;2.15;;;;;;;;;;5525448;26;20004;-72
2024/04/11 09:25:55;;;;;;;5.72;2.05;;;;;;;;;;5526966;26;19994;-73
2024/04/11 09:28:23;;;;;;;12.27;2.42;;;;;;;;;;5525566;26;20008;-73
2024/04/11 09:30:51;;;;;;;8.13;1.88;;;;;;;;;;5526277;26;20001;-73
2024/04/11 09:33:17;;;;;;;7.45;1.85;;;;;;;;;;5526547;26;20041;-73
2024/04/11 09:35:46;;;;;;;4.75;1.55;;;;;;;;;;5526468;26;20315;-74
2024/04/11 09:38:13;;;;;;;11.88;2.60;;;;;;;;;;5528407;26;20057;-74
2024/04/11 09:40:50;;;;;;;7.57;1.90;;;;;;;;;;5527660;26;20328;-74
2024/04/11 09:43:17;;;;;;;5.40;1.92;;;;;;;;;;5527157;26;19998;-74
2024/04/11 09:45:50;;;;;;;9.82;1.92;;;;;;;;;;5527015;26;20026;-74
2024/04/11 09:48:21;;;;;;;9.52;1.77;;;;;;;;;;5528363;26;20034;-74
2024/04/11 09:50:48;;;;;;;3.97;1.50;;;;;;;;;;5528807;26;20070;-72
2024/04/11 09:53:26;;;;;;;7.43;1.83;;;;;;;;;;5527833;26;19998;-72
2024/04/11 09:55:53;;;;;;;3.90;1.88;;;;;;;;;;5526317;26;20068;-72
2024/04/11 09:58:20;;;;;;;6.82;1.65;;;;;;;;;;5524834;26;19993;-72
2024/04/11 10:01:04;;;;;;;7.13;1.85;;;;;;;;;;5528139;26;20009;-73
2024/04/11 10:03:30;;;;;;;5.85;1.42;;;;;;;;;;5526836;26;20065;-73
2024/04/11 10:06:01;;;;;;;4.95;1.25;;;;;;;;;;5526493;26;20000;-73
2024/04/11 10:08:33;;;;;;;4.65;1.30;;;;;;;;;;5526799;26;19997;-73
2024/04/11 10:11:10;;;;;;;5.15;1.42;;;;;;;;;;5527206;26;20008;-72
2024/04/11 10:13:40;;;;;;;4.18;1.50;;;;;;;;;;5525093;26;20018;-73
2024/04/11 10:16:06;;;;;;;3.85;1.33;;;;;;;;;;5523754;26;20042;-71
2024/04/11 10:18:41;;;;;;;4.03;1.38;;;;;;;;;;5524851;26;20000;-73
2024/04/11 10:21:11;;;;;;;4.75;1.83;;;;;;;;;;5524040;26;19994;-73
2024/04/11 10:23:38;;;;;;;5.95;1.20;;;;;;;;;;5525794;26;20331;-75
2024/04/11 10:26:06;;;;;;;5.53;1.70;;;;;;;;;;5524316;26;20004;-72
2024/04/11 10:28:43;;;;;;;8.73;1.77;;;;;;;;;;5524320;26;20009;-73
2024/04/11 10:31:12;;;;;;;5.22;1.73;;;;;;;;;;5523719;26;20001;-73
2024/04/11 10:33:53;;;;;;;5.32;1.33;;;;;;;;;;5525616;26;20364;-73
2024/04/11 10:36:21;;;;;;;6.70;1.60;;;;;;;;;;5525474;26;19994;-72
2024/04/11 10:38:47;;;;;;;7.45;1.40;;;;;;;;;;5524644;26;20029;-72
2024/04/11 10:41:19;;;;;;;7.95;1.70;;;;;;;;;;5525352;26;19993;-73
2024/04/11 10:43:46;;;;;;;8.73;2.05;;;;;;;;;;5523694;26;20347;-72
2024/04/11 10:46:13;;;;;;;6.57;1.55;;;;;;;;;;5524683;26;19994;-72
2024/04/11 10:48:44;;;;;;;6.82;1.27;;;;;;;;;;5523650;26;20009;-73
2024/04/11 10:51:10;;;;;;;7.43;1.40;;;;;;;;;;5522921;26;20300;-73
2024/04/11 10:53:42;;;;;;;4.72;1.05;;;;;;;;;;5525394;26;20021;-73
2024/04/11 10:56:20;;;;;;;8.15;1.45;;;;;;;;;;5525321;26;20011;-72
2024/04/11 10:58:47;;;;;;;7.25;0.88;;;;;;;;;;5525696;26;19997;-73
2024/04/11 11:01:14;;;;;;;3.70;1.10;;;;;;;;;;5525343;26;20353;-71
2024/04/11 11:06:12;;;;;;;3.33;1.38;;;;;;;;;;5524941;26;20004;-72
2024/04/11 11:08:42;;;;;;;4.35;1.40;;;;;;;;;;5524929;26;19993;-72
2024/04/11 11:11:11;;;;;;;10.00;2.55;;;;;;;;;;5523855;26;20075;-73
2024/04/11 11:13:40;;;;;;;7.40;1.60;;;;;;;;;;5524176;26;20008;-71
2024/04/11 11:16:07;;;;;;;5.45;1.52;;;;;;;;;;5522459;26;20006;-72
2024/04/11 11:18:39;;;;;;;6.45;1.42;;;;;;;;;;5524222;26;20005;-72
2024/04/11 11:21:08;;;;;;;5.45;1.20;;;;;;;;;;5525370;26;19993;-73
2024/04/11 11:23:35;;;;;;;5.72;1.27;;;;;;;;;;5525919;26;19990;-72
2024/04/11 11:26:02;;;;;;;7.15;1.70;;;;;;;;;;5525134;26;20020;-73
2024/04/11 11:28:28;;;;;;;5.03;1.20;;;;;;;;;;5525143;26;20005;-73
2024/04/11 11:30:56;;;;;;;6.75;1.27;;;;;;;;;;5524758;26;19998;-73
2024/04/11 11:33:23;;;;;;;4.65;0.88;;;;;;;;;;5523985;26;20405;-74
2024/04/11 11:35:50;;;;;;;4.60;1.30;;;;;;;;;;5524234;26;20358;-74
2024/04/11 11:38:19;;;;;;;5.30;1.40;;;;;;;;;;5525260;26;20340;-72
2024/04/11 11:40:53;;;;;;;6.20;1.65;;;;;;;;;;5527238;26;19997;-73
2024/04/11 11:43:19;;;;;;;6.68;1.00;;;;;;;;;;5524983;26;19993;-73
2024/04/11 11:48:31;;;;;;;8.90;1.60;;;;;;;;;;5527185;26;20066;-72
2024/04/11 11:51:05;;;;;;;3.80;1.15;;;;;;;;;;5525656;26;20013;-72
2024/04/11 11:53:32;;;;;;;5.88;1.40;;;;;;;;;;5526500;26;19994;-74
2024/04/11 11:55:58;;;;;;;5.13;1.30;;;;;;;;;;5527440;26;20288;-73
2024/04/11 11:58:25;;;;;;;6.78;1.08;;;;;;;;;;5527758;26;19994;-72
2024/04/11 12:00:59;;;;;;;7.82;1.42;;;;;;;;;;5524926;26;20119;-73
2024/04/11 12:03:25;;;;;;;5.97;1.13;;;;;;;;;;5524294;26;20025;-73
2024/04/11 12:05:51;;;;;;;6.00;1.65;;;;;;;;;;5527347;26;20109;-73
2024/04/11 12:08:18;;;;;;;6.10;1.95;;;;;;;;;;5525484;26;19993;-72
2024/04/11 12:13:42;;;;;;;;;;;;;;;;;;5528559;26;20000;-73
2024/04/11 12:16:07;;;;;;;;;;;;;;;;;;5526995;26;19931;-73
2024/04/11 12:18:33;;;;;;;4.03;1.15;;;;;;;;;;5529310;26;19923;-73
2024/04/11 12:21:01;;;;;;;5.07;1.60;;;;;;;;;;5527123;26;19993;-72
2024/04/11 12:23:28;;;;;;;3.58;1.10;;;;;;;;;;5526221;26;19997;-72
2024/04/11 12:25:55;;;;;;;5.15;1.70;;;;;;;;;;5528029;26;19997;-73
2024/04/11 12:28:22;;;;;;;9.50;2.03;;;;;;;;;;5527442;26;20039;-73
2024/04/11 12:30:59;;;;;;;6.28;2.10;;;;;;;;;;5528307;26;19997;-74
2024/04/11 12:33:27;;;;;;;5.63;1.30;;;;;;;;;;5529034;26;20009;-72
2024/04/11 12:35:56;;;;;;;7.15;1.38;;;;;;;;;;5530327;26;20392;-73
2024/04/11 12:38:24;;;;;;;6.10;2.33;;;;;;;;;;5529385;26;20001;-72
2024/04/11 12:40:50;;;;;;;4.35;1.38;;;;;;;;;;5527259;26;19998;-73
2024/04/11 12:43:17;;;;;;;4.05;1.38;;;;;;;;;;5528301;26;19994;-73
2024/04/11 12:45:52;;;;;;;10.43;1.67;;;;;;;;;;5527277;26;20009;-73
2024/04/11 12:48:20;;;;;;;6.35;1.52;;;;;;;;;;5527031;26;20008;-71
2024/04/11 12:50:46;;;;;;;3.60;1.00;;;;;;;;;;5524285;26;20392;-73
2024/04/11 12:53:12;;;;;;;13.40;3.00;;;;;;;;;;5524574;26;20404;-73
2024/04/11 12:55:39;;;;;;;15.30;2.50;;;;;;;;;;5528004;26;19997;-73
2024/04/11 12:58:10;;;;;;;13.07;1.65;;;;;;;;;;5527579;26;20439;-73
2024/04/11 13:00:42;;;;;;;4.80;1.17;;;;;;;;;;5527644;26;19994;-72
2024/04/11 13:03:18;;;;;;;5.18;1.25;;;;;;;;;;5524683;26;19997;-73
2024/04/11 13:05:51;;;;;;;5.47;1.80;;;;;;;;;;5526806;26;20188;-73
2024/04/11 13:08:29;;;;;;;6.15;1.48;;;;;;;;;;5526736;26;19997;-74
2024/04/11 13:11:06;;;;;;;7.78;1.23;;;;;;;;;;5526518;26;19993;-73
2024/04/11 13:13:32;;;;;;;8.73;1.80;;;;;;;;;;5526215;26;20002;-72
2024/04/11 13:16:00;;;;;;;3.97;1.33;;;;;;;;;;5525603;26;20069;-71
2024/04/11 13:18:29;;;;;;;3.22;1.23;;;;;;;;;;5527291;26;20069;-72
2024/04/11 13:20:56;;;;;;;8.43;1.40;;;;;;;;;;5525139;26;20104;-72
2024/04/11 13:23:22;;;;;;;8.65;1.55;;;;;;;;;;5529089;26;19997;-72
2024/04/11 13:25:53;;;;;;;8.82;1.98;;;;;;;;;;5525421;26;20319;-72
2024/04/11 13:28:28;;;;;;;8.07;1.98;;;;;;;;;;5526785;26;20316;-73
2024/04/11 13:30:55;;;;;;;5.30;1.60;;;;;;;;;;5526826;26;19993;-73
2024/04/11 13:33:21;;;;;;;5.75;1.60;;;;;;;;;;5524957;26;20065;-72
2024/04/11 13:35:51;;;;;;;4.80;1.85;;;;;;;;;;5526028;26;20289;-72
2024/04/11 13:38:20;;;;;;;6.57;1.35;;;;;;;;;;5524705;26;19993;-73
2024/04/11 13:43:37;;;;;;;4.43;0.93;;;;;;;;;;5525817;26;20520;-72
2024/04/11 13:46:09;;;;;;;4.03;1.48;;;;;;;;;;5525696;26;19994;-73
2024/04/11 13:48:36;;;;;;;5.97;1.10;;;;;;;;;;5525768;26;20013;-73
2024/04/11 13:51:15;;;;;;;5.13;1.33;;;;;;;;;;5527539;26;20004;-73
2024/04/11 13:53:54;;;;;;;3.20;1.33;;;;;;;;;;5527882;26;20002;-72
2024/04/11 13:56:29;;;;;;;4.95;1.15;;;;;;;;;;5530185;26;20121;-73
2024/04/11 13:58:58;;;;;;;5.88;1.52;;;;;;;;;;5531298;26;20005;-73
2024/04/11 14:01:27;;;;;;;7.18;1.77;;;;;;;;;;5529693;26;20033;-73
2024/04/11 14:03:57;;;;;;;4.53;1.00;;;;;;;;;;5531511;26;20004;-74
2024/04/11 14:06:39;;;;;;;5.90;1.10;;;;;;;;;;5528829;26;20009;-73
2024/04/11 14:09:05;;;;;;;5.45;1.30;;;;;;;;;;5531398;26;20085;-78
2024/04/11 14:11:34;;;;;;;3.08;1.35;;;;;;;;;;5527316;26;19998;-75
2024/04/11 14:14:01;;;;;;;4.82;1.40;;;;;;;;;;5524949;26;19993;-74
2024/04/11 14:19:15;;;;;;;3.95;1.05;;;;;;;;;;5526375;26;20034;-75
2024/04/11 14:21:53;;;;;;;5.53;1.67;;;;;;;;;;5525690;26;19993;-72
2024/04/11 14:27:14;;;;;;;11.75;1.48;;;;;;;;;;5496279;26;19996;-73
2024/04/11 14:29:41;;;;;;;5.53;1.17;;;;;;;;;;5527246;26;20000;-74
2024/04/11 14:32:08;;;;;;;8.82;2.38;;;;;;;;;;5525847;26;20439;-75
2024/04/11 14:39:51;;;;;;;3.97;1.20;;;;;;;;;;5527451;26;20013;-74
2024/04/11 14:42:23;;;;;;;3.78;0.90;;;;;;;;;;5527939;26;20009;-74
2024/04/11 14:44:50;;;;;;;7.40;1.58;;;;;;;;;;5531369;26;19993;-74
2024/04/11 14:47:19;;;;;;;7.60;1.27;;;;;;;;;;5532260;26;20420;-73
2024/04/11 14:49:48;;;;;;;3.65;0.90;;;;;;;;;;5529446;26;20018;-75
2024/04/11 14:52:19;;;;;;;3.50;1.15;;;;;;;;;;5525965;26;20001;-74
2024/04/11 14:54:46;;;;;;;;;;;;;;;;;;5525942;26;20000;-72
2024/04/11 14:57:12;;;;;;;1.63;0.90;;;;;;;;;;5524789;26;20274;-73
2024/04/11 14:59:48;;;;;;;7.72;1.02;;;;;;;;;;5525078;26;20013;-73
2024/04/11 15:02:17;;;;;;;3.08;1.00;;;;;;;;;;5522569;26;20069;-73
2024/04/11 15:04:51;;;;;;;4.57;1.50;;;;;;;;;;5525082;26;19994;-74
2024/04/11 15:07:22;;;;;;;3.85;1.38;;;;;;;;;;5525182;26;20089;-73
2024/04/11 15:09:58;;;;;;;7.00;2.17;;;;;;;;;;5523665;26;20005;-73
2024/04/11 15:12:27;;;;;;;3.40;1.10;;;;;;;;;;5525304;26;19997;-72